Time;durP1;ratioP1;P1;durP2;ratioP2;P2;SDS_P1;SDS_P2;PMS_P1;PMS_P2;Temp;Humidity;BMP_temperature;BMP_pressure;BME280_temperature;BME280_humidity;BME280_pressure;Samples;Min_cycle;Max_cycle;Signal;HPM_P1;HPM_P2
2022/03/18 00:01:09;;;;;;;22.05;12.02;;;;;;;;;;10473857;28;20064;-68
2022/03/18 00:06:12;;;;;;;24.30;12.15;;;;;;;;;;10472247;28;20555;-67
2022/03/18 00:11:15;;;;;;;25.80;13.23;;;;;;;;;;10467654;28;20244;-68
2022/03/18 00:16:20;;;;;;;24.85;11.75;;;;;;;;;;10473297;28;20041;-68
2022/03/18 00:21:23;;;;;;;24.45;13.15;;;;;;;;;;10472369;28;20056;-68
2022/03/18 00:26:25;;;;;;;25.20;12.48;;;;;;;;;;10478649;28;20284;-68
2022/03/18 00:31:30;;;;;;;28.08;13.27;;;;;;;;;;10481521;28;20063;-68
2022/03/18 00:36:32;;;;;;;21.10;12.60;;;;;;;;;;10480490;28;20503;-68
2022/03/18 00:41:36;;;;;;;27.30;12.25;;;;;;;;;;10480152;28;20079;-67
2022/03/18 00:46:39;;;;;;;27.45;12.98;;;;;;;;;;10466874;28;20248;-67
2022/03/18 00:52:03;;;;;;;22.75;12.55;;;;;;;;;;10480783;28;20067;-68
2022/03/18 00:57:06;;;;;;;22.83;12.35;;;;;;;;;;10480143;28;20076;-67
2022/03/18 01:02:10;;;;;;;30.92;13.73;;;;;;;;;;10479607;28;20172;-67
2022/03/18 01:07:12;;;;;;;19.67;11.90;;;;;;;;;;10467874;28;20194;-67
2022/03/18 01:12:15;;;;;;;26.58;12.50;;;;;;;;;;10479701;28;20071;-67
2022/03/18 01:17:18;;;;;;;26.92;13.32;;;;;;;;;;10478493;28;20112;-68
2022/03/18 01:22:21;;;;;;;21.23;11.70;;;;;;;;;;10479200;28;20068;-68
2022/03/18 01:27:24;;;;;;;21.48;12.45;;;;;;;;;;10477857;28;20052;-68
2022/03/18 01:32:28;;;;;;;26.38;13.93;;;;;;;;;;10447937;28;20044;-68
2022/03/18 01:37:30;;;;;;;25.38;13.30;;;;;;;;;;10478013;28;20091;-68
2022/03/18 01:42:32;;;;;;;25.13;13.55;;;;;;;;;;10478692;28;20056;-68
2022/03/18 01:47:42;;;;;;;23.25;13.35;;;;;;;;;;10477062;28;20041;-68
2022/03/18 01:52:45;;;;;;;27.83;13.55;;;;;;;;;;10491765;28;20332;-68
2022/03/18 01:57:48;;;;;;;25.92;13.60;;;;;;;;;;10477333;28;20221;-67
2022/03/18 02:02:54;;;;;;;22.60;12.68;;;;;;;;;;10476502;28;20061;-67
2022/03/18 02:07:57;;;;;;;25.88;13.50;;;;;;;;;;10460560;28;20041;-68
2022/03/18 02:12:59;;;;;;;25.42;13.27;;;;;;;;;;10468934;28;20283;-67
2022/03/18 02:18:04;;;;;;;25.48;13.38;;;;;;;;;;10435096;28;20119;-67
2022/03/18 02:23:08;;;;;;;26.70;13.85;;;;;;;;;;10474436;28;20025;-68
2022/03/18 02:28:10;;;;;;;24.15;13.50;;;;;;;;;;10444530;28;20045;-68
2022/03/18 02:33:13;;;;;;;25.73;13.88;;;;;;;;;;10475796;28;20041;-67
2022/03/18 02:38:17;;;;;;;23.67;13.15;;;;;;;;;;10473060;28;20079;-68
2022/03/18 02:43:19;;;;;;;23.33;13.57;;;;;;;;;;10477933;28;20061;-68
2022/03/18 02:48:22;;;;;;;25.52;13.95;;;;;;;;;;10473978;28;20041;-68
2022/03/18 02:53:26;;;;;;;28.90;14.48;;;;;;;;;;10474461;28;20053;-68
2022/03/18 02:58:28;;;;;;;25.05;13.75;;;;;;;;;;10474568;28;20052;-68
2022/03/18 03:03:31;;;;;;;28.45;13.35;;;;;;;;;;10474005;28;20079;-68
2022/03/18 03:08:35;;;;;;;24.40;13.45;;;;;;;;;;10462278;28;20061;-68
2022/03/18 03:13:38;;;;;;;28.77;14.32;;;;;;;;;;10458796;28;20160;-68
2022/03/18 03:18:40;;;;;;;28.48;14.52;;;;;;;;;;10474461;28;20557;-68
2022/03/18 03:23:44;;;;;;;21.98;13.05;;;;;;;;;;10473755;28;20072;-68
2022/03/18 03:28:47;;;;;;;25.17;13.73;;;;;;;;;;10472356;28;20060;-68
2022/03/18 03:33:49;;;;;;;28.60;15.07;;;;;;;;;;10432739;28;20049;-68
2022/03/18 03:38:53;;;;;;;30.98;14.18;;;;;;;;;;10472963;28;20063;-68
2022/03/18 03:43:56;;;;;;;27.95;14.30;;;;;;;;;;10453208;28;20053;-68
2022/03/18 03:48:59;;;;;;;30.13;13.88;;;;;;;;;;10452814;28;20083;-68
2022/03/18 03:54:03;;;;;;;30.40;15.65;;;;;;;;;;10459121;28;20064;-68
2022/03/18 03:59:05;;;;;;;27.55;15.25;;;;;;;;;;10451070;28;20597;-68
2022/03/18 04:04:08;;;;;;;36.15;15.90;;;;;;;;;;10453413;28;20044;-67
2022/03/18 04:09:12;;;;;;;28.45;14.85;;;;;;;;;;10432359;28;20245;-67
2022/03/18 04:14:14;;;;;;;27.73;16.15;;;;;;;;;;10450306;28;20244;-67
2022/03/18 04:19:17;;;;;;;35.33;16.58;;;;;;;;;;10472439;28;20041;-67
2022/03/18 04:24:21;;;;;;;28.58;15.88;;;;;;;;;;10457880;28;20268;-67
2022/03/18 04:29:23;;;;;;;29.65;15.45;;;;;;;;;;10471654;28;20045;-67
2022/03/18 04:34:26;;;;;;;27.30;15.77;;;;;;;;;;10439911;28;20052;-67
2022/03/18 04:39:30;;;;;;;34.70;17.60;;;;;;;;;;10440751;28;20045;-67
2022/03/18 04:44:33;;;;;;;84.10;28.13;;;;;;;;;;10462403;28;20291;-68
2022/03/18 04:49:36;;;;;;;55.55;21.38;;;;;;;;;;10471437;28;20224;-67
2022/03/18 04:54:40;;;;;;;70.00;23.80;;;;;;;;;;10469457;28;20095;-66
2022/03/18 04:59:43;;;;;;;37.97;17.70;;;;;;;;;;10465774;28;20052;-67
2022/03/18 05:04:46;;;;;;;32.72;17.88;;;;;;;;;;10472177;28;20124;-67
2022/03/18 05:09:50;;;;;;;42.20;18.33;;;;;;;;;;10473452;28;20064;-67
2022/03/18 05:14:53;;;;;;;38.25;18.85;;;;;;;;;;10479231;28;20037;-67
2022/03/18 05:19:55;;;;;;;25.95;15.90;;;;;;;;;;10479711;28;20064;-68
2022/03/18 05:24:59;;;;;;;30.52;16.92;;;;;;;;;;10470777;28;20045;-67
2022/03/18 05:30:01;;;;;;;48.28;20.58;;;;;;;;;;10449214;28;20045;-67
2022/03/18 05:35:05;;;;;;;42.55;20.02;;;;;;;;;;10478891;28;20037;-67
2022/03/18 05:40:10;;;;;;;45.83;20.52;;;;;;;;;;10477864;28;20049;-67
2022/03/18 05:45:14;;;;;;;62.85;25.33;;;;;;;;;;10477896;28;20067;-67
2022/03/18 05:50:17;;;;;;;88.15;34.03;;;;;;;;;;10478762;28;20279;-66
2022/03/18 05:55:21;;;;;;;81.63;29.92;;;;;;;;;;10479050;28;20331;-68
2022/03/18 06:00:23;;;;;;;33.58;18.25;;;;;;;;;;10476300;28;20041;-68
2022/03/18 06:05:25;;;;;;;38.95;20.73;;;;;;;;;;10478344;28;20102;-67
2022/03/18 06:15:50;;;;;;;40.65;19.00;;;;;;;;;;10273068;28;20058;-69
2022/03/18 06:20:54;;;;;;;34.22;17.77;;;;;;;;;;10306710;28;20051;-70
2022/03/18 06:25:58;;;;;;;35.25;17.92;;;;;;;;;;10305065;28;20262;-67
2022/03/18 06:31:02;;;;;;;42.22;19.77;;;;;;;;;;10276248;28;20059;-69
2022/03/18 06:36:04;;;;;;;34.78;17.25;;;;;;;;;;10293935;28;20043;-67
2022/03/18 06:41:08;;;;;;;28.77;17.35;;;;;;;;;;10301994;28;20061;-69
2022/03/18 06:46:12;;;;;;;44.35;20.13;;;;;;;;;;10309372;28;20146;-70
2022/03/18 06:51:17;;;;;;;44.47;19.90;;;;;;;;;;10357747;28;20065;-68
2022/03/18 06:56:21;;;;;;;32.47;17.33;;;;;;;;;;10461186;28;20064;-68
2022/03/18 07:01:24;;;;;;;26.30;16.08;;;;;;;;;;10460235;28;20045;-68
2022/03/18 07:06:26;;;;;;;26.40;15.82;;;;;;;;;;10461802;28;20045;-69
2022/03/18 07:11:29;;;;;;;34.17;15.23;;;;;;;;;;10462536;28;20115;-68
2022/03/18 07:21:52;;;;;;;31.90;16.75;;;;;;;;;;10481852;28;20060;-69
2022/03/18 07:26:56;;;;;;;22.10;14.55;;;;;;;;;;10465432;28;20106;-68
2022/03/18 07:31:58;;;;;;;24.75;12.90;;;;;;;;;;10473159;28;20274;-67
2022/03/18 07:37:01;;;;;;;21.10;13.90;;;;;;;;;;10454110;28;20072;-68
2022/03/18 07:42:06;;;;;;;27.45;17.05;;;;;;;;;;10452424;28;20250;-68
2022/03/18 07:47:09;;;;;;;19.80;13.40;;;;;;;;;;10471309;28;20065;-68
2022/03/18 07:52:11;;;;;;;28.52;16.13;;;;;;;;;;10474589;28;20037;-69
2022/03/18 07:57:15;;;;;;;17.90;12.70;;;;;;;;;;10473074;28;20053;-69
2022/03/18 08:02:17;;;;;;;19.40;13.25;;;;;;;;;;10471497;28;20056;-70
2022/03/18 08:07:20;;;;;;;15.40;10.00;;;;;;;;;;10432405;28;20399;-69
2022/03/18 08:12:24;;;;;;;12.27;8.80;;;;;;;;;;10431816;28;20054;-68
2022/03/18 08:17:27;;;;;;;14.23;9.25;;;;;;;;;;10469472;28;20102;-68
2022/03/18 08:22:29;;;;;;;13.63;9.63;;;;;;;;;;10472503;28;20041;-69
2022/03/18 08:27:33;;;;;;;17.02;11.60;;;;;;;;;;10471794;28;20090;-69
2022/03/18 08:32:36;;;;;;;38.65;30.40;;;;;;;;;;10445858;28;20304;-68
2022/03/18 08:43:01;;;;;;;14.45;8.48;;;;;;;;;;10460546;28;20061;-68
2022/03/18 08:48:05;;;;;;;17.63;9.43;;;;;;;;;;10492524;28;20048;-66
2022/03/18 08:53:09;;;;;;;11.50;7.10;;;;;;;;;;10452013;28;20041;-68
2022/03/18 08:58:14;;;;;;;12.10;7.07;;;;;;;;;;10463488;28;20332;-67
2022/03/18 09:03:16;;;;;;;7.45;6.20;;;;;;;;;;10478817;28;20334;-69
2022/03/18 09:08:18;;;;;;;9.27;6.25;;;;;;;;;;10479655;28;20099;-68
2022/03/18 09:13:22;;;;;;;8.68;6.13;;;;;;;;;;10451615;28;20095;-68
2022/03/18 09:18:24;;;;;;;7.85;6.40;;;;;;;;;;10478546;28;20060;-68
2022/03/18 09:23:27;;;;;;;11.00;7.13;;;;;;;;;;10478893;28;20048;-69
2022/03/18 09:28:32;;;;;;;18.83;7.85;;;;;;;;;;10468244;28;20361;-67
2022/03/18 09:33:34;;;;;;;11.55;7.00;;;;;;;;;;10438437;28;20060;-68
2022/03/18 09:38:37;;;;;;;8.15;6.32;;;;;;;;;;10471937;28;20107;-68
2022/03/18 09:43:42;;;;;;;19.40;9.68;;;;;;;;;;10476677;28;20073;-68
2022/03/18 09:48:45;;;;;;;9.50;6.97;;;;;;;;;;10464948;28;20047;-68
2022/03/18 09:53:47;;;;;;;32.30;14.43;;;;;;;;;;10436898;28;20072;-67
2022/03/18 09:58:51;;;;;;;18.42;11.00;;;;;;;;;;10463553;28;20046;-68
2022/03/18 10:03:53;;;;;;;20.70;9.93;;;;;;;;;;10463609;28;20087;-69
2022/03/18 10:08:58;;;;;;;18.65;9.93;;;;;;;;;;10457976;28;20080;-69
2022/03/18 10:14:03;;;;;;;13.50;10.02;;;;;;;;;;10456465;28;20053;-69
2022/03/18 10:19:08;;;;;;;14.82;10.23;;;;;;;;;;10443080;28;20411;-69
2022/03/18 10:24:11;;;;;;;18.17;9.73;;;;;;;;;;10612973;22;20061;-72
2022/03/18 10:29:16;;;;;;;12.60;9.30;;;;;;;;;;10390308;28;20339;-70
2022/03/18 10:39:39;;;;;;;11.38;8.15;;;;;;;;;;10390451;28;20313;-68
2022/03/18 10:44:48;;;;;;;10.57;7.70;;;;;;;;;;10389601;28;20238;-68
2022/03/18 10:49:51;;;;;;;11.13;7.97;;;;;;;;;;10392518;28;20076;-67
2022/03/18 10:54:54;;;;;;;14.90;8.23;;;;;;;;;;10379238;28;20064;-67
2022/03/18 10:59:59;;;;;;;11.55;8.15;;;;;;;;;;10380878;28;20058;-66
2022/03/18 11:05:01;;;;;;;9.25;7.75;;;;;;;;;;10386838;28;20057;-67
2022/03/18 11:15:27;;;;;;;8.30;6.72;;;;;;;;;;10389991;28;20054;-66
2022/03/18 11:20:32;;;;;;;14.00;7.43;;;;;;;;;;10389749;28;20240;-67
2022/03/18 11:25:35;;;;;;;10.35;7.55;;;;;;;;;;10340241;28;20066;-68
2022/03/18 11:30:41;;;;;;;13.98;8.40;;;;;;;;;;10333996;28;20046;-67
2022/03/18 11:36:06;;;;;;;10.77;7.93;;;;;;;;;;10353012;28;20049;-67
2022/03/18 11:41:10;;;;;;;31.73;23.88;;;;;;;;;;10349349;28;20392;-67
2022/03/18 11:46:25;;;;;;;11.20;8.45;;;;;;;;;;10349709;28;20038;-67
2022/03/18 11:51:30;;;;;;;11.55;8.30;;;;;;;;;;10349167;28;20253;-67
2022/03/18 11:56:45;;;;;;;11.98;7.72;;;;;;;;;;10344173;28;20043;-67
2022/03/18 12:01:52;;;;;;;13.75;7.88;;;;;;;;;;10333519;28;20058;-66
2022/03/18 12:07:16;;;;;;;13.77;8.70;;;;;;;;;;10316535;28;20133;-67
2022/03/18 12:12:20;;;;;;;12.77;8.85;;;;;;;;;;10344893;28;20246;-67
2022/03/18 12:17:25;;;;;;;12.02;8.63;;;;;;;;;;10324440;28;20061;-67
2022/03/18 12:22:30;;;;;;;17.83;10.03;;;;;;;;;;10347626;28;20053;-67
2022/03/18 12:27:36;;;;;;;13.15;8.52;;;;;;;;;;10349087;28;20641;-68
2022/03/18 12:32:41;;;;;;;16.25;9.18;;;;;;;;;;10363291;28;20054;-68
2022/03/18 12:37:45;;;;;;;15.02;9.43;;;;;;;;;;10362929;28;20125;-67
2022/03/18 12:42:49;;;;;;;13.55;8.88;;;;;;;;;;10363534;28;20054;-66
2022/03/18 12:47:54;;;;;;;18.63;8.55;;;;;;;;;;10316811;28;20047;-68
2022/03/18 12:52:57;;;;;;;14.02;8.82;;;;;;;;;;10347143;28;20156;-67
2022/03/18 12:57:59;;;;;;;16.02;8.70;;;;;;;;;;10347591;28;20147;-67
2022/03/18 13:03:03;;;;;;;12.55;7.70;;;;;;;;;;10346889;28;20104;-69
2022/03/18 13:08:07;;;;;;;18.40;7.72;;;;;;;;;;10348771;28;20066;-67
2022/03/18 13:13:10;;;;;;;13.82;8.00;;;;;;;;;;10348792;28;20069;-68
2022/03/18 13:18:17;;;;;;;12.50;8.05;;;;;;;;;;10346859;28;20058;-69
2022/03/18 13:23:20;;;;;;;11.77;8.02;;;;;;;;;;10357806;28;20042;-68
2022/03/18 13:28:25;;;;;;;11.90;8.60;;;;;;;;;;10332370;28;20070;-67
2022/03/18 13:33:40;;;;;;;16.38;9.90;;;;;;;;;;10318771;28;20038;-67
2022/03/18 13:38:48;;;;;;;11.93;9.18;;;;;;;;;;10355625;28;20046;-67
2022/03/18 13:43:58;;;;;;;16.20;9.30;;;;;;;;;;10373803;28;20046;-68
2022/03/18 13:49:13;;;;;;;20.23;9.52;;;;;;;;;;10354852;28;20265;-69
2022/03/18 13:54:17;;;;;;;11.13;7.78;;;;;;;;;;10366394;28;20046;-69
2022/03/18 13:59:20;;;;;;;15.43;8.20;;;;;;;;;;10352986;28;20053;-67
2022/03/18 14:04:24;;;;;;;12.32;7.80;;;;;;;;;;10354812;28;20049;-67
2022/03/18 14:09:27;;;;;;;11.00;7.50;;;;;;;;;;10354550;28;20050;-68
2022/03/18 14:14:30;;;;;;;15.50;8.38;;;;;;;;;;10353901;28;20057;-67
2022/03/18 14:19:49;;;;;;;17.27;8.27;;;;;;;;;;10355532;28;20062;-69
2022/03/18 14:24:51;;;;;;;11.40;8.73;;;;;;;;;;10362851;28;20054;-68
2022/03/18 14:29:54;;;;;;;29.23;14.85;;;;;;;;;;10355754;28;20038;-67
2022/03/18 14:34:58;;;;;;;15.38;9.73;;;;;;;;;;10353250;28;20051;-69
2022/03/18 14:40:01;;;;;;;17.35;11.05;;;;;;;;;;10355240;28;20058;-68
2022/03/18 14:45:03;;;;;;;20.45;10.90;;;;;;;;;;10353938;28;20042;-66
2022/03/18 14:50:09;;;;;;;32.55;13.57;;;;;;;;;;10352599;28;20054;-68
2022/03/18 15:00:33;;;;;;;16.95;10.07;;;;;;;;;;10367734;28;20050;-68
2022/03/18 15:05:37;;;;;;;18.60;9.68;;;;;;;;;;10356342;28;20039;-68
2022/03/18 15:10:39;;;;;;;14.02;9.75;;;;;;;;;;10353092;28;20053;-69
2022/03/18 15:15:46;;;;;;;17.02;9.25;;;;;;;;;;10354636;28;20046;-67
2022/03/18 15:20:53;;;;;;;16.40;9.82;;;;;;;;;;10354345;28;20257;-67
2022/03/18 15:25:56;;;;;;;23.00;13.30;;;;;;;;;;10360088;28;20364;-68
2022/03/18 15:30:58;;;;;;;16.27;10.18;;;;;;;;;;10352923;28;20312;-67
2022/03/18 15:36:02;;;;;;;44.83;19.08;;;;;;;;;;10351634;28;20050;-67
2022/03/18 15:41:04;;;;;;;27.50;12.75;;;;;;;;;;10352995;28;20050;-67
2022/03/18 15:46:07;;;;;;;17.15;10.52;;;;;;;;;;10351564;28;20042;-67
2022/03/18 15:51:10;;;;;;;19.15;10.73;;;;;;;;;;10351281;28;20356;-67
2022/03/18 15:56:13;;;;;;;22.02;9.98;;;;;;;;;;10351695;28;20050;-69
2022/03/18 16:01:16;;;;;;;18.55;8.95;;;;;;;;;;10349608;28;20053;-68
2022/03/18 16:06:20;;;;;;;34.20;10.80;;;;;;;;;;10351959;28;20222;-67
2022/03/18 16:11:23;;;;;;;40.50;12.27;;;;;;;;;;10348676;28;20321;-67
2022/03/18 16:16:26;;;;;;;42.00;11.90;;;;;;;;;;10350609;28;20304;-68
2022/03/18 16:21:30;;;;;;;38.45;15.63;;;;;;;;;;10351638;28;20065;-69
2022/03/18 16:26:34;;;;;;;22.48;13.98;;;;;;;;;;10349530;28;20113;-67
2022/03/18 16:31:37;;;;;;;23.23;13.90;;;;;;;;;;10352086;28;20058;-68
2022/03/18 16:36:41;;;;;;;24.83;13.65;;;;;;;;;;10351500;28;20066;-69
2022/03/18 16:41:45;;;;;;;26.27;14.75;;;;;;;;;;10350235;28;20077;-69
2022/03/18 16:52:08;;;;;;;55.42;28.70;;;;;;;;;;10363865;28;20046;-67
2022/03/18 16:57:15;;;;;;;45.90;22.98;;;;;;;;;;10350460;28;20349;-68
2022/03/18 17:02:18;;;;;;;41.85;21.05;;;;;;;;;;10363376;28;20042;-67
2022/03/18 17:07:21;;;;;;;45.33;25.23;;;;;;;;;;10355000;28;20133;-68
2022/03/18 17:12:24;;;;;;;34.85;21.30;;;;;;;;;;10358607;28;20046;-68
2022/03/18 17:17:28;;;;;;;27.35;15.25;;;;;;;;;;10356751;28;20101;-70
2022/03/18 17:22:32;;;;;;;29.83;17.95;;;;;;;;;;10356517;28;20046;-69
2022/03/18 17:27:34;;;;;;;30.27;18.60;;;;;;;;;;10354394;28;20252;-69
2022/03/18 17:32:37;;;;;;;112.55;43.33;;;;;;;;;;10356422;28;20063;-69
2022/03/18 17:37:41;;;;;;;53.88;26.80;;;;;;;;;;10358604;28;20065;-70
2022/03/18 17:42:43;;;;;;;31.02;15.63;;;;;;;;;;10325220;28;20050;-70
2022/03/18 17:47:46;;;;;;;67.97;30.63;;;;;;;;;;10348730;28;20222;-68
2022/03/18 17:52:50;;;;;;;52.90;26.75;;;;;;;;;;10341220;28;20042;-69
2022/03/18 17:57:52;;;;;;;60.20;30.15;;;;;;;;;;10356274;28;20054;-68
2022/03/18 18:02:54;;;;;;;53.30;27.23;;;;;;;;;;10353648;28;20042;-70
2022/03/18 18:07:58;;;;;;;71.50;31.60;;;;;;;;;;10351560;28;20039;-69
2022/03/18 18:13:01;;;;;;;162.32;75.43;;;;;;;;;;10343526;28;20245;-70
2022/03/18 18:18:03;;;;;;;186.25;67.22;;;;;;;;;;10354055;28;20085;-69
2022/03/18 18:23:07;;;;;;;134.43;55.90;;;;;;;;;;10353745;28;20250;-70
2022/03/18 18:28:11;;;;;;;121.50;50.13;;;;;;;;;;10355414;28;20074;-68
2022/03/18 18:33:13;;;;;;;56.03;28.98;;;;;;;;;;10354694;28;20237;-69
2022/03/18 18:38:17;;;;;;;49.55;25.55;;;;;;;;;;10354392;28;20058;-68
2022/03/18 18:43:20;;;;;;;31.60;18.15;;;;;;;;;;10351009;28;20038;-69
2022/03/18 18:48:22;;;;;;;31.00;17.50;;;;;;;;;;10353059;28;20046;-69
2022/03/18 18:53:26;;;;;;;43.90;22.98;;;;;;;;;;10320540;28;20253;-69
2022/03/18 18:58:30;;;;;;;96.63;45.47;;;;;;;;;;10355135;28;20241;-68
2022/03/18 19:03:33;;;;;;;90.32;48.72;;;;;;;;;;10339500;28;20046;-69
2022/03/18 19:08:38;;;;;;;86.30;46.97;;;;;;;;;;10351821;28;20049;-70
2022/03/18 19:13:40;;;;;;;77.07;41.55;;;;;;;;;;10349666;28;20042;-68
2022/03/18 19:18:43;;;;;;;159.15;73.78;;;;;;;;;;10324622;28;20063;-69
2022/03/18 19:23:47;;;;;;;158.23;66.75;;;;;;;;;;10326824;28;20267;-69
2022/03/18 19:28:49;;;;;;;133.07;54.42;;;;;;;;;;10366896;28;20049;-69
2022/03/18 19:33:52;;;;;;;104.53;48.63;;;;;;;;;;10343738;28;20057;-69
2022/03/18 19:38:56;;;;;;;136.85;63.05;;;;;;;;;;10350980;28;20092;-69
2022/03/18 19:43:58;;;;;;;88.95;37.65;;;;;;;;;;10332402;28;20058;-70
2022/03/18 19:49:01;;;;;;;87.20;39.58;;;;;;;;;;10342361;28;20049;-68
2022/03/18 19:54:04;;;;;;;91.60;40.47;;;;;;;;;;10352831;28;20046;-68
2022/03/18 20:04:27;;;;;;;101.70;47.10;;;;;;;;;;10338337;28;20355;-68
2022/03/18 20:09:32;;;;;;;94.68;42.70;;;;;;;;;;10347352;28;20039;-69
2022/03/18 20:14:35;;;;;;;99.53;44.50;;;;;;;;;;10350561;28;20273;-68
2022/03/18 20:19:37;;;;;;;107.03;47.25;;;;;;;;;;10349256;28;20054;-69
2022/03/18 20:24:41;;;;;;;113.00;49.10;;;;;;;;;;10349176;28;20062;-67
2022/03/18 20:29:43;;;;;;;106.65;49.13;;;;;;;;;;10339938;28;20069;-68
2022/03/18 20:34:46;;;;;;;122.93;56.75;;;;;;;;;;10346253;28;20054;-68
2022/03/18 20:39:50;;;;;;;122.25;52.85;;;;;;;;;;10351098;28;20057;-69
2022/03/18 20:44:52;;;;;;;135.73;56.13;;;;;;;;;;10373765;28;20053;-68
2022/03/18 20:49:55;;;;;;;179.10;66.70;;;;;;;;;;10375955;28;20057;-68
2022/03/18 20:55:02;;;;;;;184.68;66.57;;;;;;;;;;10369919;28;20062;-69
2022/03/18 21:00:07;;;;;;;197.40;69.85;;;;;;;;;;10359239;28;20135;-68
2022/03/18 21:05:10;;;;;;;184.80;70.30;;;;;;;;;;10365814;28;20041;-70
2022/03/18 21:10:14;;;;;;;159.45;59.65;;;;;;;;;;10356823;28;20089;-68
2022/03/18 21:15:16;;;;;;;115.63;48.97;;;;;;;;;;10356348;28;20046;-68
2022/03/18 21:20:19;;;;;;;149.25;58.83;;;;;;;;;;10357535;28;20108;-69
2022/03/18 21:30:38;;;;;;;126.32;55.63;;;;;;;;;;10353770;28;20055;-69
2022/03/18 21:30:49;;;;;;;124.97;55.70;;;;;;;;;;10355130;28;20085;-68
2022/03/18 21:35:52;;;;;;;107.53;50.00;;;;;;;;;;10355537;28;20143;-68
2022/03/18 21:40:56;;;;;;;132.23;54.65;;;;;;;;;;10356073;28;20057;-68
2022/03/18 21:46:00;;;;;;;142.50;60.95;;;;;;;;;;10356382;28;20045;-68
2022/03/18 21:51:03;;;;;;;155.63;67.85;;;;;;;;;;10354014;28;20077;-69
2022/03/18 21:56:06;;;;;;;96.95;43.70;;;;;;;;;;10356226;28;20038;-67
2022/03/18 22:01:09;;;;;;;104.55;47.97;;;;;;;;;;10360851;28;20045;-70
2022/03/18 22:06:11;;;;;;;87.93;42.03;;;;;;;;;;10372316;28;20050;-69
2022/03/18 22:11:16;;;;;;;72.68;34.33;;;;;;;;;;10370301;28;20053;-67
2022/03/18 22:16:18;;;;;;;95.07;42.60;;;;;;;;;;10354827;28;20050;-68
2022/03/18 22:21:21;;;;;;;90.63;41.05;;;;;;;;;;10354216;28;20321;-68
2022/03/18 22:26:28;;;;;;;118.53;55.08;;;;;;;;;;10374610;28;20057;-68
2022/03/18 22:31:30;;;;;;;94.63;44.15;;;;;;;;;;10375097;28;20062;-68
2022/03/18 22:36:33;;;;;;;103.15;46.97;;;;;;;;;;10354840;28;20042;-68
2022/03/18 22:41:36;;;;;;;105.32;47.75;;;;;;;;;;10393831;28;20050;-67
2022/03/18 22:46:39;;;;;;;105.93;47.17;;;;;;;;;;10354530;28;20245;-67
2022/03/18 22:51:42;;;;;;;110.18;52.63;;;;;;;;;;10352070;28;20069;-67
2022/03/18 22:56:46;;;;;;;98.35;47.05;;;;;;;;;;10353079;28;20049;-68
2022/03/18 23:01:49;;;;;;;121.25;57.60;;;;;;;;;;10353627;28;20320;-68
2022/03/18 23:06:51;;;;;;;114.72;56.30;;;;;;;;;;10352943;28;20356;-70
2022/03/18 23:12:10;;;;;;;130.23;68.35;;;;;;;;;;10365191;28;20065;-67
2022/03/18 23:17:13;;;;;;;110.35;52.47;;;;;;;;;;10373485;28;20057;-69
2022/03/18 23:22:15;;;;;;;102.75;47.53;;;;;;;;;;10354485;28;20054;-67
2022/03/18 23:27:19;;;;;;;101.50;43.92;;;;;;;;;;10352517;28;20062;-68
2022/03/18 23:32:22;;;;;;;130.85;60.60;;;;;;;;;;10353490;28;20070;-69
2022/03/18 23:37:25;;;;;;;115.65;52.25;;;;;;;;;;10353477;28;20049;-69
2022/03/18 23:42:28;;;;;;;115.63;52.55;;;;;;;;;;10351747;28;20050;-67
2022/03/18 23:47:31;;;;;;;125.18;53.05;;;;;;;;;;10352460;28;20074;-68
2022/03/18 23:52:33;;;;;;;129.45;55.03;;;;;;;;;;10352459;28;20050;-67
2022/03/18 23:57:40;;;;;;;142.80;57.97;;;;;;;;;;10349236;28;20096;-68
